Time;durP1;ratioP1;P1;durP2;ratioP2;P2;SDS_P1;SDS_P2;PMS_P1;PMS_P2;Temp;Humidity;BMP_temperature;BMP_pressure;BME280_temperature;BME280_humidity;BME280_pressure;Samples;Min_cycle;Max_cycle;Signal;HPM_P1;HPM_P2
2023/09/08 00:02:00;;;;;;;9.45;7.18;;;;;;;21.70;60.79;101583.91;5082130;28;20387;-72
2023/09/08 00:04:26;;;;;;;7.38;6.68;;;;;;;21.64;59.83;101571.78;5073249;28;20029;-71
2023/09/08 00:06:51;;;;;;;7.97;7.18;;;;;;;21.54;59.78;101573.41;5083285;28;20042;-71
2023/09/08 00:09:16;;;;;;;11.88;7.50;;;;;;;21.59;59.41;101572.13;5077683;28;20016;-71
2023/09/08 00:11:42;;;;;;;7.95;7.15;;;;;;;21.70;60.33;101571.31;5081784;28;20020;-71
2023/09/08 00:14:07;;;;;;;9.27;7.72;;;;;;;21.58;59.96;101577.59;5074444;28;20032;-71
2023/09/08 00:16:32;;;;;;;10.75;7.07;;;;;;;21.49;61.02;101572.91;5079289;28;20036;-71
2023/09/08 00:18:58;;;;;;;8.40;6.75;;;;;;;21.43;60.37;101573.38;5075780;28;20407;-71
2023/09/08 00:21:27;;;;;;;9.52;7.32;;;;;;;21.26;61.32;101574.56;5085628;28;20081;-71
2023/09/08 00:23:53;;;;;;;7.78;7.00;;;;;;;21.20;62.07;101578.56;5084451;28;20035;-71
2023/09/08 00:26:19;;;;;;;7.95;6.57;;;;;;;21.20;61.04;101578.56;5081552;28;20029;-71
2023/09/08 00:28:44;;;;;;;11.88;7.63;;;;;;;21.20;61.34;101583.09;5087228;28;20089;-71
2023/09/08 00:31:09;;;;;;;7.97;7.03;;;;;;;21.14;61.82;101579.03;5087838;28;20016;-71
2023/09/08 00:33:34;;;;;;;9.40;6.65;;;;;;;21.08;61.86;101585.72;5075729;28;20036;-71
2023/09/08 00:36:00;;;;;;;9.25;6.75;;;;;;;21.07;61.18;101577.75;5086440;28;20552;-70
2023/09/08 00:38:26;;;;;;;9.02;6.72;;;;;;;21.18;61.64;101580.53;5084105;28;20782;-71
2023/09/08 00:40:51;;;;;;;8.32;7.45;;;;;;;21.16;62.42;101582.44;5081258;28;20106;-71
2023/09/08 00:43:17;;;;;;;8.57;7.55;;;;;;;21.06;61.46;101582.25;5084495;28;20024;-71
2023/09/08 00:45:45;;;;;;;8.55;6.50;;;;;;;21.01;60.93;101584.44;5088813;28;20153;-71
2023/09/08 00:48:10;;;;;;;11.25;7.18;;;;;;;20.87;62.45;101580.03;5083221;28;20027;-71
2023/09/08 00:50:36;;;;;;;14.25;7.57;;;;;;;20.78;62.24;101588.75;5086880;28;20151;-71
2023/09/08 00:53:03;;;;;;;10.60;7.32;;;;;;;20.72;62.36;101582.97;5080698;28;20054;-71
2023/09/08 00:55:30;;;;;;;9.63;7.53;;;;;;;20.68;62.33;101578.78;5095379;28;20532;-71
2023/09/08 00:57:55;;;;;;;8.02;7.22;;;;;;;20.59;63.28;101573.09;5086007;28;20032;-71
2023/09/08 01:00:25;;;;;;;8.40;7.50;;;;;;;20.52;62.61;101566.44;5080427;28;20490;-71
2023/09/08 01:02:50;;;;;;;8.23;6.95;;;;;;;20.48;62.68;101575.69;5091552;28;20040;-71
2023/09/08 01:05:16;;;;;;;8.65;6.85;;;;;;;20.48;62.72;101574.81;5105254;22;20004;-67
2023/09/08 01:07:42;;;;;;;11.70;7.60;;;;;;;20.43;63.09;101572.44;5066440;28;20082;-67
2023/09/08 01:10:08;;;;;;;8.50;6.63;;;;;;;20.42;63.29;101577.88;5068417;28;20021;-68
2023/09/08 01:12:34;;;;;;;12.80;7.90;;;;;;;20.42;62.90;101567.16;5072614;28;20028;-68
2023/09/08 01:15:00;;;;;;;9.43;7.35;;;;;;;20.45;63.31;101570.47;5069644;28;20421;-68
2023/09/08 01:17:26;;;;;;;8.13;7.30;;;;;;;20.49;62.89;101581.91;5068380;28;20624;-68
2023/09/08 01:19:58;;;;;;;8.02;7.20;;;;;;;20.39;63.72;101577.16;5068866;28;20031;-68
2023/09/08 01:22:26;;;;;;;11.20;7.50;;;;;;;20.41;63.58;101573.50;5067611;28;20055;-68
2023/09/08 01:25:12;;;;;;;9.20;8.05;;;;;;;20.43;63.05;101576.94;5069120;28;20043;-68
2023/09/08 01:27:40;;;;;;;9.23;7.20;;;;;;;20.31;63.38;101568.75;5066595;28;20101;-67
2023/09/08 01:30:06;;;;;;;8.35;6.97;;;;;;;20.28;63.44;101577.00;5066199;28;20383;-68
2023/09/08 01:32:32;;;;;;;8.10;7.05;;;;;;;20.26;64.21;101578.09;5070897;28;20020;-68
2023/09/08 01:34:59;;;;;;;10.35;7.13;;;;;;;20.25;63.21;101576.38;5069734;28;20375;-68
2023/09/08 01:37:24;;;;;;;9.77;7.75;;;;;;;20.19;64.18;101577.69;5071572;28;20490;-68
2023/09/08 01:39:49;;;;;;;13.18;7.93;;;;;;;20.07;63.34;101567.78;5072972;28;20028;-68
2023/09/08 01:42:15;;;;;;;11.35;8.07;;;;;;;20.07;63.90;101581.19;5069920;28;20086;-68
2023/09/08 01:44:40;;;;;;;9.63;8.20;;;;;;;20.00;65.15;101571.81;5071365;28;20024;-68
2023/09/08 01:47:05;;;;;;;9.70;7.95;;;;;;;19.93;65.51;101574.06;5066898;28;20107;-68
2023/09/08 01:49:31;;;;;;;9.70;8.52;;;;;;;19.94;65.11;101583.00;5070969;28;20024;-68
2023/09/08 01:51:56;;;;;;;13.57;7.88;;;;;;;19.90;64.10;101576.09;5073416;28;20050;-68
2023/09/08 01:54:22;;;;;;;10.13;7.80;;;;;;;19.93;66.31;101582.13;5070619;28;20017;-68
2023/09/08 01:56:47;;;;;;;10.15;7.78;;;;;;;19.91;64.86;101577.81;5071441;28;20044;-68
2023/09/08 01:59:12;;;;;;;11.43;7.68;;;;;;;19.90;64.02;101578.78;5067885;28;20466;-68
2023/09/08 02:01:37;;;;;;;8.80;7.18;;;;;;;19.91;65.84;101572.44;5053442;28;20031;-68
2023/09/08 02:04:03;;;;;;;9.73;7.00;;;;;;;19.84;66.20;101577.38;5069055;28;20029;-68
2023/09/08 02:06:28;;;;;;;10.43;7.60;;;;;;;19.77;65.17;101578.75;5069295;28;20032;-68
2023/09/08 02:08:53;;;;;;;8.10;7.30;;;;;;;19.73;67.41;101570.06;5070779;28;20478;-67
2023/09/08 02:11:19;;;;;;;8.95;7.32;;;;;;;19.72;65.30;101576.38;5068948;28;20024;-68
2023/09/08 02:13:45;;;;;;;8.57;7.05;;;;;;;19.71;65.57;101573.78;5076072;28;20038;-68
2023/09/08 02:16:16;;;;;;;9.95;7.05;;;;;;;19.71;65.29;101573.78;5072718;28;20024;-67
2023/09/08 02:18:42;;;;;;;8.50;7.10;;;;;;;19.68;65.76;101569.50;5070547;28;20801;-68
2023/09/08 02:21:08;;;;;;;10.43;6.65;;;;;;;19.68;65.06;101572.19;5060701;28;20028;-68
2023/09/08 02:23:33;;;;;;;7.80;6.55;;;;;;;19.65;67.00;101568.84;5069778;28;20027;-68
2023/09/08 02:25:58;;;;;;;8.65;6.97;;;;;;;19.58;65.22;101571.03;5067696;28;20028;-68
2023/09/08 02:28:24;;;;;;;8.65;6.63;;;;;;;19.51;65.13;101565.22;5067903;28;20032;-68
2023/09/08 02:30:49;;;;;;;8.18;6.60;;;;;;;19.54;65.73;101565.03;5074974;28;20024;-68
2023/09/08 02:33:14;;;;;;;8.55;7.25;;;;;;;19.53;65.84;101562.44;5080806;28;20494;-67
2023/09/08 02:35:40;;;;;;;10.00;7.38;;;;;;;19.45;67.19;101559.41;5072693;28;20036;-68
2023/09/08 02:38:05;;;;;;;9.02;7.35;;;;;;;19.44;65.76;101560.34;5075993;28;20040;-68
2023/09/08 02:40:30;;;;;;;9.20;7.25;;;;;;;19.42;67.30;101557.78;5074770;28;20032;-67
2023/09/08 02:42:56;;;;;;;7.80;6.80;;;;;;;19.36;67.39;101559.06;5049990;28;20063;-67
2023/09/08 02:45:21;;;;;;;8.43;6.63;;;;;;;19.32;66.44;101554.84;5071780;28;20056;-67
2023/09/08 02:47:46;;;;;;;6.72;6.00;;;;;;;19.22;66.08;101556.41;5074976;28;20028;-67
2023/09/08 02:50:11;;;;;;;7.28;5.68;;;;;;;19.19;65.82;101556.59;5072786;28;20024;-67
2023/09/08 02:52:37;;;;;;;6.07;5.47;;;;;;;19.19;65.59;101561.97;5068853;28;20055;-67
2023/09/08 02:55:02;;;;;;;7.57;5.88;;;;;;;19.10;66.18;101562.56;5072157;28;20039;-68
2023/09/08 02:57:28;;;;;;;6.70;5.85;;;;;;;19.06;66.26;101558.34;5080038;28;20016;-67
2023/09/08 02:59:56;;;;;;;8.18;5.90;;;;;;;19.08;66.47;101554.63;5069970;28;20025;-67
2023/09/08 03:02:21;;;;;;;6.40;5.80;;;;;;;19.08;66.54;101559.13;5071187;28;20024;-67
2023/09/08 03:04:46;;;;;;;9.88;7.38;;;;;;;19.07;67.55;101557.38;5068270;28;20140;-68
2023/09/08 03:07:12;;;;;;;10.27;6.72;;;;;;;19.04;67.21;101553.09;5067711;28;20414;-67
2023/09/08 03:09:37;;;;;;;8.20;6.80;;;;;;;19.00;65.78;101562.28;5067592;28;20090;-67
2023/09/08 03:12:03;;;;;;;8.25;6.57;;;;;;;18.90;66.06;101560.31;5072712;28;20028;-67
2023/09/08 03:14:28;;;;;;;8.15;6.90;;;;;;;18.87;66.52;101556.00;5069338;28;20028;-67
2023/09/08 03:16:54;;;;;;;7.75;6.40;;;;;;;18.93;67.84;101560.09;5070759;28;20039;-67
2023/09/08 03:19:19;;;;;;;9.48;7.45;;;;;;;18.89;67.01;101555.91;5071962;28;20554;-67
2023/09/08 03:21:44;;;;;;;8.63;7.70;;;;;;;18.90;67.33;101555.81;5064517;28;20033;-67
2023/09/08 03:24:10;;;;;;;11.98;8.25;;;;;;;18.93;66.92;101554.72;5065989;28;20081;-67
2023/09/08 03:26:35;;;;;;;10.70;8.85;;;;;;;18.77;67.92;101565.56;5070212;28;20032;-66
2023/09/08 03:29:00;;;;;;;10.63;7.85;;;;;;;18.69;67.64;101559.81;5068556;28;20278;-66
2023/09/08 03:31:26;;;;;;;11.75;7.30;;;;;;;18.74;68.67;101549.69;5071479;28;20328;-66
2023/09/08 03:33:51;;;;;;;11.30;8.23;;;;;;;18.74;67.67;101560.41;5069615;28;20039;-67
2023/09/08 03:36:16;;;;;;;10.73;8.85;;;;;;;18.64;68.16;101560.09;5070872;28;20097;-66
2023/09/08 03:38:41;;;;;;;8.15;6.95;;;;;;;18.56;68.22;101552.53;5068625;28;20131;-66
2023/09/08 03:41:07;;;;;;;7.10;5.57;;;;;;;18.50;67.79;101542.19;5072741;28;20030;-66
2023/09/08 03:43:32;;;;;;;8.20;7.40;;;;;;;18.50;67.57;101552.06;5067515;28;20036;-67
2023/09/08 03:45:57;;;;;;;9.68;7.40;;;;;;;18.51;68.07;101549.28;5065820;28;20104;-67
2023/09/08 03:48:23;;;;;;;8.35;6.18;;;;;;;18.55;69.18;101555.28;5070282;28;20032;-67
2023/09/08 03:50:48;;;;;;;7.35;6.60;;;;;;;18.58;68.64;101544.41;5074058;28;20122;-67
2023/09/08 03:53:14;;;;;;;6.20;5.57;;;;;;;18.58;67.71;101549.75;5069943;28;20394;-67
2023/09/08 03:55:39;;;;;;;6.72;5.53;;;;;;;18.56;68.20;101547.19;5070178;28;20046;-67
2023/09/08 03:58:04;;;;;;;5.88;5.28;;;;;;;18.57;67.03;101548.03;5064553;28;20031;-67
2023/09/08 04:00:30;;;;;;;7.60;6.72;;;;;;;18.49;67.87;101551.19;5066882;28;20383;-67
2023/09/08 04:02:55;;;;;;;10.85;7.18;;;;;;;18.46;67.99;101550.50;5073347;28;20027;-67
2023/09/08 04:05:20;;;;;;;9.35;8.00;;;;;;;18.38;67.74;101544.78;5073785;28;20044;-67
2023/09/08 04:07:46;;;;;;;9.45;7.90;;;;;;;18.12;69.60;101547.22;5065532;28;20068;-67
2023/09/08 04:10:12;;;;;;;7.97;6.70;;;;;;;17.91;69.95;101544.03;5061645;28;20020;-67
2023/09/08 04:12:41;;;;;;;7.75;6.32;;;;;;;17.90;69.46;101536.09;5068772;28;20040;-67
2023/09/08 04:15:07;;;;;;;8.07;6.65;;;;;;;17.88;69.21;101538.88;5068315;28;20023;-67
2023/09/08 04:17:33;;;;;;;8.18;6.80;;;;;;;17.85;68.90;101539.91;5066182;28;20028;-67
2023/09/08 04:19:58;;;;;;;10.43;6.97;;;;;;;17.90;69.40;101541.44;5073566;28;20028;-67
2023/09/08 04:22:24;;;;;;;7.03;6.15;;;;;;;17.94;68.89;101538.50;5065671;28;20483;-67
2023/09/08 04:24:49;;;;;;;6.78;6.10;;;;;;;17.95;69.27;101536.66;5052842;28;20333;-67
2023/09/08 04:27:15;;;;;;;9.13;6.68;;;;;;;17.88;69.32;101529.97;5068873;28;20422;-67
2023/09/08 04:29:40;;;;;;;9.45;6.50;;;;;;;17.88;68.91;101533.50;5080377;28;20111;-67
2023/09/08 04:32:08;;;;;;;7.78;6.95;;;;;;;17.75;70.04;101533.38;5070890;28;20047;-67
2023/09/08 04:34:39;;;;;;;7.43;6.72;;;;;;;17.69;69.78;101532.84;5077226;28;20608;-67
2023/09/08 04:37:04;;;;;;;8.40;7.35;;;;;;;17.76;69.35;101532.41;5070803;28;20029;-68
2023/09/08 04:39:30;;;;;;;9.52;7.60;;;;;;;17.89;69.45;101531.69;5080957;28;20030;-67
2023/09/08 04:41:55;;;;;;;9.90;8.23;;;;;;;17.87;69.59;101534.47;5072178;28;20035;-67
2023/09/08 04:44:20;;;;;;;10.50;8.00;;;;;;;17.89;69.75;101535.22;5069954;28;20044;-67
2023/09/08 04:46:45;;;;;;;8.50;7.25;;;;;;;17.91;69.76;101533.34;5075541;28;20119;-68
2023/09/08 04:49:11;;;;;;;7.43;6.30;;;;;;;17.94;69.00;101532.28;5068755;28;20544;-67
2023/09/08 04:51:36;;;;;;;8.73;7.10;;;;;;;17.93;69.32;101538.59;5074475;28;20025;-67
2023/09/08 04:54:02;;;;;;;12.25;8.63;;;;;;;17.75;71.09;101533.38;5069374;28;20039;-67
2023/09/08 04:56:27;;;;;;;14.85;9.50;;;;;;;17.65;71.49;101536.66;5073693;28;20032;-66
2023/09/08 04:58:54;;;;;;;9.18;7.55;;;;;;;17.65;71.79;101542.00;5074651;28;20047;-66
2023/09/08 05:01:19;;;;;;;8.50;7.65;;;;;;;17.75;71.53;101543.22;5076017;28;20017;-66
2023/09/08 05:03:44;;;;;;;14.80;11.10;;;;;;;17.75;72.36;101552.09;5074349;28;20500;-66
2023/09/08 05:06:09;;;;;;;14.77;11.32;;;;;;;17.70;72.78;101539.91;5078067;28;20051;-66
2023/09/08 05:08:35;;;;;;;14.07;10.65;;;;;;;17.67;73.82;101540.09;5076617;28;20056;-66
2023/09/08 05:11:00;;;;;;;13.40;10.23;;;;;;;17.76;72.08;101537.75;5075901;28;20029;-66
2023/09/08 05:13:26;;;;;;;14.75;10.80;;;;;;;17.83;73.01;101541.81;5069182;28;20086;-66
2023/09/08 05:15:59;;;;;;;16.35;11.88;;;;;;;17.73;73.62;101548.66;5077316;28;20506;-66
2023/09/08 05:18:25;;;;;;;14.07;10.25;;;;;;;17.76;73.87;101544.94;5072475;28;20040;-66
2023/09/08 05:20:50;;;;;;;13.68;9.93;;;;;;;17.81;72.52;101545.53;5051257;28;20480;-66
2023/09/08 05:23:15;;;;;;;15.35;10.73;;;;;;;17.85;72.53;101547.91;5068777;28;20059;-66
2023/09/08 05:25:42;;;;;;;13.55;11.02;;;;;;;17.94;72.17;101553.69;5070731;28;20395;-65
2023/09/08 05:28:07;;;;;;;17.02;12.27;;;;;;;18.06;72.75;101555.63;5067230;28;20032;-66
2023/09/08 05:30:33;;;;;;;16.75;11.82;;;;;;;18.18;72.41;101554.03;5068440;28;20837;-66
2023/09/08 05:32:58;;;;;;;15.48;11.55;;;;;;;18.22;71.86;101548.38;5069680;28;20028;-67
2023/09/08 05:35:24;;;;;;;16.73;12.10;;;;;;;18.32;71.66;101556.72;5067936;28;20127;-67
2023/09/08 05:37:49;;;;;;;16.95;13.05;;;;;;;18.32;71.55;101557.56;5066668;28;20037;-66
2023/09/08 05:40:14;;;;;;;13.40;11.90;;;;;;;18.37;72.65;101559.97;5078077;28;20410;-67
2023/09/08 05:42:40;;;;;;;16.50;12.48;;;;;;;18.35;72.26;101556.53;5069439;28;20078;-67
2023/09/08 05:45:05;;;;;;;16.13;12.05;;;;;;;18.40;71.79;101561.63;5069367;28;20495;-66
2023/09/08 05:47:31;;;;;;;15.77;11.98;;;;;;;18.52;71.91;101560.88;5069667;28;20024;-66
2023/09/08 05:49:56;;;;;;;20.40;13.57;;;;;;;18.64;71.10;101562.75;5071493;28;20116;-66
2023/09/08 05:52:21;;;;;;;17.40;11.65;;;;;;;18.72;70.74;101563.19;5071500;28;20064;-66
2023/09/08 05:54:47;;;;;;;16.77;12.98;;;;;;;18.77;71.14;101562.91;5069363;28;20457;-67
2023/09/08 05:57:12;;;;;;;16.15;12.93;;;;;;;18.81;70.51;101572.47;5069905;28;20088;-67
2023/09/08 05:59:37;;;;;;;18.00;13.60;;;;;;;18.83;71.03;101566.03;5068287;28;20396;-67
2023/09/08 06:02:03;;;;;;;15.80;13.13;;;;;;;18.90;71.41;101565.66;5069113;28;20025;-68
2023/09/08 06:04:28;;;;;;;14.32;11.68;;;;;;;18.92;70.20;101559.22;5071785;28;20044;-68
2023/09/08 06:06:53;;;;;;;17.35;12.98;;;;;;;18.92;71.38;101566.41;5068824;28;20036;-67
2023/09/08 06:09:18;;;;;;;18.92;13.93;;;;;;;18.76;71.75;101564.72;5070867;28;20073;-66
2023/09/08 06:11:44;;;;;;;17.58;13.13;;;;;;;18.84;71.60;101564.25;5069091;28;20443;-66
2023/09/08 06:14:09;;;;;;;15.52;13.27;;;;;;;18.88;71.62;101578.28;5070498;28;20035;-66
2023/09/08 06:16:35;;;;;;;17.60;14.02;;;;;;;18.84;71.89;101575.81;5075943;28;20039;-66
2023/09/08 06:19:03;;;;;;;19.23;14.05;;;;;;;18.86;71.79;101571.22;5070810;28;20539;-67
2023/09/08 06:21:28;;;;;;;17.42;13.43;;;;;;;19.00;72.24;101575.69;5073735;28;20036;-66
2023/09/08 06:23:53;;;;;;;14.20;12.80;;;;;;;19.18;70.94;101580.84;5069828;28;20036;-67
2023/09/08 06:26:19;;;;;;;20.10;14.18;;;;;;;19.31;70.92;101571.91;5066857;28;20021;-66
2023/09/08 06:28:44;;;;;;;17.63;14.60;;;;;;;19.37;70.80;101571.50;5065552;28;20021;-69
2023/09/08 06:31:10;;;;;;;15.35;12.55;;;;;;;19.49;69.75;101579.69;5052704;28;20028;-67
2023/09/08 06:33:35;;;;;;;15.55;12.65;;;;;;;19.60;70.41;101575.38;5070509;28;20384;-67
2023/09/08 06:36:00;;;;;;;15.77;13.32;;;;;;;19.68;70.72;101574.88;5069678;28;20084;-68
2023/09/08 06:38:26;;;;;;;16.40;13.25;;;;;;;19.77;71.29;101586.78;5069103;28;20021;-68
2023/09/08 06:40:52;;;;;;;16.52;14.57;;;;;;;19.81;69.24;101581.13;5075017;28;20020;-68
2023/09/08 06:43:18;;;;;;;19.77;15.43;;;;;;;19.83;69.79;101581.91;5071283;28;20332;-68
2023/09/08 06:45:47;;;;;;;18.35;14.32;;;;;;;19.94;70.42;101586.53;5070757;28;20063;-68
2023/09/08 06:48:12;;;;;;;18.70;14.18;;;;;;;20.02;69.39;101591.38;5077903;28;20024;-67
2023/09/08 06:50:38;;;;;;;17.75;14.75;;;;;;;20.09;69.26;101592.69;5067758;28;20025;-68
2023/09/08 06:53:03;;;;;;;17.48;13.30;;;;;;;20.19;69.22;101582.16;5066963;28;20166;-66
2023/09/08 06:55:28;;;;;;;17.42;14.68;;;;;;;20.27;68.41;101594.09;5065000;28;20494;-66
2023/09/08 06:57:54;;;;;;;16.85;13.75;;;;;;;20.38;68.92;101596.06;5068563;28;20142;-66
2023/09/08 07:00:20;;;;;;;15.40;13.73;;;;;;;20.49;67.83;101584.59;5067786;28;20391;-67
2023/09/08 07:02:45;;;;;;;17.27;14.15;;;;;;;20.57;67.83;101587.63;5066290;28;20483;-67
2023/09/08 07:05:10;;;;;;;18.33;14.77;;;;;;;20.64;67.92;101594.25;5067735;28;20020;-66
2023/09/08 07:07:36;;;;;;;17.10;14.13;;;;;;;20.75;67.09;101594.38;5064976;28;20040;-67
2023/09/08 07:10:05;;;;;;;15.65;13.65;;;;;;;20.87;67.18;101590.78;5066193;28;20028;-69
2023/09/08 07:12:30;;;;;;;14.48;12.10;;;;;;;20.98;67.63;101592.69;5065553;28;20417;-65
2023/09/08 07:14:56;;;;;;;18.50;12.68;;;;;;;21.05;65.89;101596.69;5062327;28;20016;-67
2023/09/08 07:17:23;;;;;;;14.25;12.75;;;;;;;21.12;66.96;101595.28;5061834;28;20112;-66
2023/09/08 07:19:49;;;;;;;18.48;13.70;;;;;;;21.23;66.68;101596.31;5069507;28;20584;-65
2023/09/08 07:22:14;;;;;;;18.33;13.93;;;;;;;21.29;67.31;101599.41;5065968;28;20020;-66
2023/09/08 07:24:39;;;;;;;17.75;12.80;;;;;;;21.37;67.10;101598.91;5068520;28;20028;-66
2023/09/08 07:27:04;;;;;;;16.45;13.15;;;;;;;21.44;66.49;101593.91;5062055;28;20628;-66
2023/09/08 07:29:30;;;;;;;18.45;14.23;;;;;;;21.59;66.40;101590.06;5065413;28;20021;-66
2023/09/08 07:31:55;;;;;;;15.45;12.75;;;;;;;21.71;66.08;101591.84;5061723;28;20070;-66
2023/09/08 07:34:20;;;;;;;19.38;12.75;;;;;;;21.82;65.92;101591.03;5060613;28;20033;-66
2023/09/08 07:36:45;;;;;;;15.98;13.70;;;;;;;21.89;65.66;101598.53;5069719;28;20028;-66
2023/09/08 07:39:11;;;;;;;14.82;12.80;;;;;;;22.07;66.14;101598.13;5069377;28;20379;-65
2023/09/08 07:41:39;;;;;;;17.90;13.90;;;;;;;22.18;66.82;101600.88;5068499;28;20032;-65
2023/09/08 07:44:04;;;;;;;19.70;12.75;;;;;;;22.35;65.37;101597.75;5064946;28;20577;-66
2023/09/08 07:46:30;;;;;;;18.48;12.30;;;;;;;22.64;64.88;101592.75;5069396;28;20051;-66
2023/09/08 07:48:55;;;;;;;14.85;11.85;;;;;;;23.04;63.45;101589.59;5053080;28;20036;-65
2023/09/08 07:51:20;;;;;;;14.15;11.80;;;;;;;23.42;62.81;101591.88;5075217;28;20021;-66
2023/09/08 07:53:46;;;;;;;18.85;12.65;;;;;;;23.75;61.20;101594.63;5066209;28;20325;-65
2023/09/08 07:56:11;;;;;;;16.33;12.18;;;;;;;24.13;61.04;101594.06;5063095;28;20467;-65
2023/09/08 07:58:36;;;;;;;15.90;11.68;;;;;;;24.44;59.03;101597.72;5067924;28;20024;-66
2023/09/08 08:01:02;;;;;;;14.18;10.85;;;;;;;24.78;58.60;101590.22;5068094;28;20021;-66
2023/09/08 08:03:27;;;;;;;15.15;10.90;;;;;;;25.10;57.54;101586.53;5072294;28;20024;-66
2023/09/08 08:05:52;;;;;;;11.88;10.35;;;;;;;25.36;58.61;101587.72;5076100;28;20175;-66
2023/09/08 08:08:18;;;;;;;13.90;10.52;;;;;;;25.64;56.55;101586.03;5072113;28;20027;-66
2023/09/08 08:10:43;;;;;;;10.32;9.18;;;;;;;26.02;55.74;101584.38;5069637;28;20463;-66
2023/09/08 08:13:08;;;;;;;11.73;10.20;;;;;;;26.15;54.40;101584.06;5068287;28;20028;-66
2023/09/08 08:15:36;;;;;;;12.43;9.90;;;;;;;26.27;54.40;101582.06;5067077;28;20037;-66
2023/09/08 08:18:01;;;;;;;13.00;9.38;;;;;;;26.41;54.71;101585.16;5065506;28;20570;-66
2023/09/08 08:20:26;;;;;;;9.93;8.93;;;;;;;26.72;52.70;101593.09;5054239;28;20016;-66
2023/09/08 08:22:52;;;;;;;10.05;8.57;;;;;;;27.04;52.44;101589.09;5070181;28;20040;-65
2023/09/08 08:25:17;;;;;;;13.43;9.10;;;;;;;27.37;51.10;101587.63;5049742;28;20024;-66
2023/09/08 08:27:42;;;;;;;13.35;9.68;;;;;;;27.48;50.79;101595.59;5069180;28;20077;-66
2023/09/08 08:30:08;;;;;;;10.65;8.70;;;;;;;27.64;49.33;101581.31;5065033;28;20103;-66
2023/09/08 08:32:34;;;;;;;10.18;9.15;;;;;;;27.65;50.13;101594.75;5064593;28;20083;-66
2023/09/08 08:34:59;;;;;;;11.02;8.75;;;;;;;28.08;49.00;101598.56;5053419;28;20049;-66
2023/09/08 08:37:25;;;;;;;12.63;9.70;;;;;;;28.32;48.51;101597.91;5070641;28;20032;-66
2023/09/08 08:39:50;;;;;;;11.23;8.55;;;;;;;28.93;47.27;101598.78;5069167;28;20478;-66
2023/09/08 08:42:15;;;;;;;9.48;8.10;;;;;;;29.16;45.99;101588.19;5068615;28;20178;-67
2023/09/08 08:44:45;;;;;;;10.25;8.43;;;;;;;29.34;46.08;101597.13;5072426;28;20701;-67
2023/09/08 08:47:13;;;;;;;9.68;8.38;;;;;;;29.40;45.50;101595.59;5070342;28;20033;-67
2023/09/08 08:49:43;;;;;;;10.95;8.40;;;;;;;29.71;44.93;101593.13;5064110;28;20451;-67
2023/09/08 08:52:09;;;;;;;8.45;7.65;;;;;;;30.44;43.20;101595.84;5065630;28;20043;-67
2023/09/08 08:54:42;;;;;;;8.55;7.60;;;;;;;30.58;43.28;101590.69;5065519;28;20112;-67
2023/09/08 08:57:08;;;;;;;8.20;7.38;;;;;;;30.91;42.34;101591.47;5067685;28;20032;-67
2023/09/08 08:59:33;;;;;;;10.65;7.50;;;;;;;31.27;41.83;101589.13;5071578;28;20028;-67
2023/09/08 09:01:59;;;;;;;8.77;7.88;;;;;;;31.09;40.41;101591.22;5067063;28;20529;-67
2023/09/08 09:04:25;;;;;;;7.82;7.10;;;;;;;31.74;40.38;101582.66;5069034;28;20056;-67
2023/09/08 09:06:50;;;;;;;9.60;6.80;;;;;;;32.24;40.22;101592.19;5059154;28;20318;-67
2023/09/08 09:09:16;;;;;;;8.35;6.93;;;;;;;32.70;39.00;101594.81;5062537;28;20037;-67
2023/09/08 09:11:42;;;;;;;8.40;7.60;;;;;;;32.54;38.19;101589.53;5061589;28;20028;-67
2023/09/08 09:14:08;;;;;;;7.85;6.95;;;;;;;32.96;37.00;101597.09;5067785;28;20028;-68
2023/09/08 09:16:40;;;;;;;7.45;6.75;;;;;;;33.01;37.11;101590.00;5075274;28;20033;-68
2023/09/08 09:19:05;;;;;;;7.53;6.50;;;;;;;33.38;37.13;101593.59;5070855;28;20467;-68
2023/09/08 09:21:46;;;;;;;10.40;7.18;;;;;;;33.67;38.06;101589.09;5069391;28;20025;-68
2023/09/08 09:24:16;;;;;;;9.55;7.25;;;;;;;33.96;36.72;101589.00;5074170;28;20490;-68
2023/09/08 09:26:41;;;;;;;7.07;6.47;;;;;;;33.95;35.75;101590.06;5073139;28;20017;-67
2023/09/08 09:29:13;;;;;;;8.93;8.00;;;;;;;33.67;35.48;101594.56;5073325;28;20107;-67
2023/09/08 09:31:50;;;;;;;8.65;7.55;;;;;;;33.87;36.91;101584.66;5071906;28;20107;-66
2023/09/08 09:34:15;;;;;;;8.25;7.43;;;;;;;34.26;34.65;101589.66;5062195;28;20038;-66
2023/09/08 09:36:42;;;;;;;7.53;6.63;;;;;;;34.96;33.55;101582.31;5075196;28;20028;-67
2023/09/08 09:39:08;;;;;;;7.28;6.57;;;;;;;35.45;34.01;101586.75;5068331;28;20275;-67
2023/09/08 09:41:34;;;;;;;11.05;7.10;;;;;;;35.23;34.04;101591.53;5076310;28;20027;-66
2023/09/08 09:43:59;;;;;;;9.25;6.65;;;;;;;35.85;32.73;101583.22;5060861;28;20504;-66
2023/09/08 09:46:28;;;;;;;10.02;6.80;;;;;;;36.15;32.73;101592.81;5070448;28;20036;-66
2023/09/08 09:48:58;;;;;;;8.25;6.28;;;;;;;36.63;31.34;101587.03;5070649;28;20032;-69
2023/09/08 09:51:23;;;;;;;9.90;6.10;;;;;;;37.01;30.96;101580.78;5068373;28;20028;-67
2023/09/08 09:53:54;;;;;;;7.82;6.55;;;;;;;37.65;30.16;101588.09;5064089;28;20025;-69
2023/09/08 09:56:22;;;;;;;8.68;6.88;;;;;;;38.04;29.83;101589.72;5066830;28;20483;-67
2023/09/08 09:58:48;;;;;;;8.73;6.40;;;;;;;37.14;30.09;101596.44;5067020;28;20028;-67
2023/09/08 10:01:14;;;;;;;8.65;6.25;;;;;;;38.07;29.11;101593.97;5064449;28;20032;-67
2023/09/08 10:03:39;;;;;;;7.35;6.65;;;;;;;38.37;28.12;101593.28;5067064;28;20036;-66
2023/09/08 10:06:05;;;;;;;8.90;6.20;;;;;;;38.70;28.03;101588.22;5052001;28;20517;-66
2023/09/08 10:08:36;;;;;;;6.63;5.93;;;;;;;38.94;29.16;101578.22;5070216;28;20032;-67
2023/09/08 10:11:06;;;;;;;8.52;5.82;;;;;;;39.14;27.58;101589.00;5063080;28;20115;-66
2023/09/08 10:13:38;;;;;;;9.23;6.63;;;;;;;39.39;27.01;101577.84;5063182;28;20032;-66
2023/09/08 10:16:05;;;;;;;9.68;6.07;;;;;;;39.68;27.41;101580.81;5044247;28;20035;-67
2023/09/08 10:18:33;;;;;;;5.85;5.38;;;;;;;40.05;27.09;101584.25;5052951;28;20043;-67
2023/09/08 10:21:04;;;;;;;6.78;5.70;;;;;;;39.75;26.32;101578.81;5066959;28;20479;-67
2023/09/08 10:23:43;;;;;;;6.32;5.80;;;;;;;40.14;27.77;101579.25;5066901;28;20495;-67
2023/09/08 10:26:14;;;;;;;7.05;5.85;;;;;;;39.94;26.98;101580.41;5066404;28;20463;-67
2023/09/08 10:28:39;;;;;;;6.20;5.68;;;;;;;39.76;26.15;101588.81;5064169;28;20035;-67
2023/09/08 10:31:07;;;;;;;7.63;5.22;;;;;;;39.68;27.09;101592.75;5069344;28;20402;-67
2023/09/08 10:33:34;;;;;;;8.13;5.82;;;;;;;39.58;26.79;101580.53;5069168;28;20035;-68
2023/09/08 10:36:02;;;;;;;7.30;5.85;;;;;;;38.94;27.61;101591.16;5068728;28;20029;-67
2023/09/08 10:38:31;;;;;;;7.10;5.40;;;;;;;39.34;27.17;101585.16;5077415;28;20149;-67
2023/09/08 10:41:15;;;;;;;6.18;5.57;;;;;;;39.54;28.06;101582.94;5063679;28;20028;-68
2023/09/08 10:43:46;;;;;;;6.85;5.55;;;;;;;39.32;26.98;101588.16;5060831;28;20028;-68
2023/09/08 10:46:21;;;;;;;9.57;6.30;;;;;;;38.95;27.97;101581.81;5064905;28;20032;-67
2023/09/08 10:48:46;;;;;;;6.15;5.65;;;;;;;39.03;28.37;101587.88;5068679;28;20491;-67
2023/09/08 10:51:17;;;;;;;9.87;5.77;;;;;;;38.32;29.50;101582.91;5062083;28;20021;-68
2023/09/08 10:53:43;;;;;;;6.53;5.93;;;;;;;38.40;28.75;101582.63;5068697;28;20283;-67
2023/09/08 10:56:08;;;;;;;6.88;5.57;;;;;;;38.66;28.94;101573.22;5065719;28;20427;-68
2023/09/08 10:58:38;;;;;;;7.53;6.50;;;;;;;38.42;28.43;101574.09;5071858;28;20037;-68
2023/09/08 11:01:04;;;;;;;7.53;6.20;;;;;;;38.26;30.25;101572.75;5064161;28;20765;-68
2023/09/08 11:03:38;;;;;;;6.97;6.32;;;;;;;38.15;30.21;101570.75;5068073;28;20052;-68
2023/09/08 11:06:07;;;;;;;11.00;5.97;;;;;;;38.04;30.03;101575.06;5065361;28;20039;-68
2023/09/08 11:08:33;;;;;;;6.53;5.93;;;;;;;38.31;29.60;101572.94;5072437;28;20468;-68
2023/09/08 11:11:02;;;;;;;6.70;5.90;;;;;;;38.32;29.12;101573.78;5067516;28;20028;-68
2023/09/08 11:13:28;;;;;;;7.50;5.85;;;;;;;37.81;30.07;101570.13;5061056;28;20070;-68
2023/09/08 11:15:54;;;;;;;7.95;5.80;;;;;;;37.50;30.46;101560.81;5066369;28;20036;-68